sensor_id;sensor_type;location;lat;lon;timestamp;P1;durP1;ratioP1;P2;durP2;ratioP2
21426;SDS011;10874;49.452;11.050;2023-04-24T00:02:12;2.60;;;2.00;;
21426;SDS011;10874;49.452;11.050;2023-04-24T00:04:40;4.13;;;2.33;;
21426;SDS011;10874;49.452;11.050;2023-04-24T00:07:07;3.07;;;2.47;;
21426;SDS011;10874;49.452;11.050;2023-04-24T00:09:35;4.80;;;2.70;;
21426;SDS011;10874;49.452;11.050;2023-04-24T00:12:02;4.87;;;2.30;;
21426;SDS011;10874;49.452;11.050;2023-04-24T00:14:31;2.57;;;2.37;;
21426;SDS011;10874;49.452;11.050;2023-04-24T00:16:58;5.03;;;2.20;;
21426;SDS011;10874;49.452;11.050;2023-04-24T00:19:24;2.57;;;2.23;;
21426;SDS011;10874;49.452;11.050;2023-04-24T00:21:51;4.83;;;2.23;;
21426;SDS011;10874;49.452;11.050;2023-04-24T00:24:18;3.53;;;2.30;;
21426;SDS011;10874;49.452;11.050;2023-04-24T00:26:44;3.60;;;2.10;;
21426;SDS011;10874;49.452;11.050;2023-04-24T00:29:11;1.83;;;1.70;;
21426;SDS011;10874;49.452;11.050;2023-04-24T00:31:38;1.80;;;1.70;;
21426;SDS011;10874;49.452;11.050;2023-04-24T00:34:05;3.17;;;2.03;;
21426;SDS011;10874;49.452;11.050;2023-04-24T00:36:32;3.00;;;2.00;;
21426;SDS011;10874;49.452;11.050;2023-04-24T00:38:58;3.47;;;2.10;;
21426;SDS011;10874;49.452;11.050;2023-04-24T00:41:26;2.83;;;1.70;;
21426;SDS011;10874;49.452;11.050;2023-04-24T00:43:53;2.77;;;1.77;;
21426;SDS011;10874;49.452;11.050;2023-04-24T00:46:20;2.83;;;1.90;;
21426;SDS011;10874;49.452;11.050;2023-04-24T00:48:47;2.27;;;2.00;;
21426;SDS011;10874;49.452;11.050;2023-04-24T00:51:14;3.17;;;2.10;;
21426;SDS011;10874;49.452;11.050;2023-04-24T00:53:41;3.33;;;1.87;;
21426;SDS011;10874;49.452;11.050;2023-04-24T00:56:08;2.93;;;1.60;;
21426;SDS011;10874;49.452;11.050;2023-04-24T00:58:34;2.40;;;1.70;;
21426;SDS011;10874;49.452;11.050;2023-04-24T01:01:01;2.23;;;1.53;;
21426;SDS011;10874;49.452;11.050;2023-04-24T01:03:29;3.40;;;2.33;;
21426;SDS011;10874;49.452;11.050;2023-04-24T01:05:57;1.50;;;1.40;;
21426;SDS011;10874;49.452;11.050;2023-04-24T01:08:24;2.43;;;1.80;;
21426;SDS011;10874;49.452;11.050;2023-04-24T01:10:52;1.80;;;1.70;;
21426;SDS011;10874;49.452;11.050;2023-04-24T01:13:19;2.07;;;1.57;;
21426;SDS011;10874;49.452;11.050;2023-04-24T01:15:46;1.77;;;1.47;;
21426;SDS011;10874;49.452;11.050;2023-04-24T01:18:13;1.47;;;1.30;;
21426;SDS011;10874;49.452;11.050;2023-04-24T01:20:41;1.63;;;1.50;;
21426;SDS011;10874;49.452;11.050;2023-04-24T01:23:09;1.30;;;1.20;;
21426;SDS011;10874;49.452;11.050;2023-04-24T01:25:36;2.80;;;1.70;;
21426;SDS011;10874;49.452;11.050;2023-04-24T01:28:03;1.27;;;1.17;;
21426;SDS011;10874;49.452;11.050;2023-04-24T01:30:30;2.67;;;1.80;;
21426;SDS011;10874;49.452;11.050;2023-04-24T01:32:57;1.93;;;1.50;;
21426;SDS011;10874;49.452;11.050;2023-04-24T01:35:25;1.87;;;1.40;;
21426;SDS011;10874;49.452;11.050;2023-04-24T01:37:52;1.83;;;1.30;;
21426;SDS011;10874;49.452;11.050;2023-04-24T01:40:19;1.90;;;1.50;;
21426;SDS011;10874;49.452;11.050;2023-04-24T01:42:46;2.27;;;1.33;;
21426;SDS011;10874;49.452;11.050;2023-04-24T01:45:13;3.07;;;1.33;;
21426;SDS011;10874;49.452;11.050;2023-04-24T01:47:40;1.47;;;1.30;;
21426;SDS011;10874;49.452;11.050;2023-04-24T01:50:07;2.00;;;1.17;;
21426;SDS011;10874;49.452;11.050;2023-04-24T01:52:34;1.53;;;1.43;;
21426;SDS011;10874;49.452;11.050;2023-04-24T01:55:03;1.77;;;1.10;;
21426;SDS011;10874;49.452;11.050;2023-04-24T01:57:30;1.77;;;1.40;;
21426;SDS011;10874;49.452;11.050;2023-04-24T01:59:57;1.73;;;1.00;;
21426;SDS011;10874;49.452;11.050;2023-04-24T02:02:24;2.83;;;1.37;;
21426;SDS011;10874;49.452;11.050;2023-04-24T02:04:53;2.50;;;1.30;;
21426;SDS011;10874;49.452;11.050;2023-04-24T02:07:21;1.83;;;0.93;;
21426;SDS011;10874;49.452;11.050;2023-04-24T02:09:48;1.23;;;1.13;;
21426;SDS011;10874;49.452;11.050;2023-04-24T02:12:15;1.30;;;1.20;;
21426;SDS011;10874;49.452;11.050;2023-04-24T02:14:43;1.73;;;1.10;;
21426;SDS011;10874;49.452;11.050;2023-04-24T02:17:10;2.13;;;1.10;;
21426;SDS011;10874;49.452;11.050;2023-04-24T02:19:38;1.40;;;1.20;;
21426;SDS011;10874;49.452;11.050;2023-04-24T02:22:06;1.80;;;1.00;;
21426;SDS011;10874;49.452;11.050;2023-04-24T02:24:33;1.10;;;1.00;;
21426;SDS011;10874;49.452;11.050;2023-04-24T02:27:00;2.67;;;1.03;;
21426;SDS011;10874;49.452;11.050;2023-04-24T02:29:28;3.20;;;1.07;;
21426;SDS011;10874;49.452;11.050;2023-04-24T02:31:55;2.63;;;1.20;;
21426;SDS011;10874;49.452;11.050;2023-04-24T02:34:21;1.33;;;1.10;;
21426;SDS011;10874;49.452;11.050;2023-04-24T02:36:49;2.03;;;1.40;;
21426;SDS011;10874;49.452;11.050;2023-04-24T02:39:16;1.33;;;1.03;;
21426;SDS011;10874;49.452;11.050;2023-04-24T02:41:43;2.23;;;1.17;;
21426;SDS011;10874;49.452;11.050;2023-04-24T02:44:10;1.40;;;1.00;;
21426;SDS011;10874;49.452;11.050;2023-04-24T02:46:37;1.67;;;0.90;;
21426;SDS011;10874;49.452;11.050;2023-04-24T02:49:03;1.20;;;1.10;;
21426;SDS011;10874;49.452;11.050;2023-04-24T02:51:30;1.30;;;1.20;;
21426;SDS011;10874;49.452;11.050;2023-04-24T02:53:57;3.43;;;1.30;;
21426;SDS011;10874;49.452;11.050;2023-04-24T02:56:24;2.43;;;1.63;;
21426;SDS011;10874;49.452;11.050;2023-04-24T02:58:51;1.73;;;1.13;;
21426;SDS011;10874;49.452;11.050;2023-04-24T03:01:18;1.47;;;1.17;;
21426;SDS011;10874;49.452;11.050;2023-04-24T03:03:44;1.87;;;1.40;;
21426;SDS011;10874;49.452;11.050;2023-04-24T03:06:11;1.30;;;1.20;;
21426;SDS011;10874;49.452;11.050;2023-04-24T03:08:38;2.23;;;1.13;;
21426;SDS011;10874;49.452;11.050;2023-04-24T03:11:05;1.30;;;1.10;;
21426;SDS011;10874;49.452;11.050;2023-04-24T03:13:31;2.33;;;1.10;;
21426;SDS011;10874;49.452;11.050;2023-04-24T03:15:58;1.40;;;1.00;;
21426;SDS011;10874;49.452;11.050;2023-04-24T03:18:27;3.70;;;1.30;;
21426;SDS011;10874;49.452;11.050;2023-04-24T03:20:53;2.33;;;1.40;;
21426;SDS011;10874;49.452;11.050;2023-04-24T03:23:20;2.20;;;1.40;;
21426;SDS011;10874;49.452;11.050;2023-04-24T03:25:47;2.40;;;1.20;;
21426;SDS011;10874;49.452;11.050;2023-04-24T03:28:15;2.40;;;1.20;;
21426;SDS011;10874;49.452;11.050;2023-04-24T03:30:47;1.80;;;1.30;;
21426;SDS011;10874;49.452;11.050;2023-04-24T03:33:15;1.83;;;1.33;;
21426;SDS011;10874;49.452;11.050;2023-04-24T03:35:52;2.27;;;1.30;;
21426;SDS011;10874;49.452;11.050;2023-04-24T03:38:19;2.83;;;1.20;;
21426;SDS011;10874;49.452;11.050;2023-04-24T03:40:55;1.30;;;1.20;;
21426;SDS011;10874;49.452;11.050;2023-04-24T03:43:33;2.60;;;1.23;;
21426;SDS011;10874;49.452;11.050;2023-04-24T03:46:01;1.67;;;1.40;;
21426;SDS011;10874;49.452;11.050;2023-04-24T03:48:31;1.47;;;1.23;;
21426;SDS011;10874;49.452;11.050;2023-04-24T03:50:58;1.60;;;1.20;;
21426;SDS011;10874;49.452;11.050;2023-04-24T03:53:25;2.00;;;1.30;;
21426;SDS011;10874;49.452;11.050;2023-04-24T03:55:53;2.30;;;1.23;;
21426;SDS011;10874;49.452;11.050;2023-04-24T03:58:20;1.93;;;1.40;;
21426;SDS011;10874;49.452;11.050;2023-04-24T04:00:47;1.67;;;1.57;;
21426;SDS011;10874;49.452;11.050;2023-04-24T04:03:37;1.77;;;1.50;;
21426;SDS011;10874;49.452;11.050;2023-04-24T04:06:04;1.77;;;1.67;;
21426;SDS011;10874;49.452;11.050;2023-04-24T04:08:31;2.20;;;2.00;;
21426;SDS011;10874;49.452;11.050;2023-04-24T04:10:58;2.97;;;2.07;;
21426;SDS011;10874;49.452;11.050;2023-04-24T04:13:25;3.93;;;2.20;;
21426;SDS011;10874;49.452;11.050;2023-04-24T04:15:52;3.27;;;2.13;;
21426;SDS011;10874;49.452;11.050;2023-04-24T04:18:18;2.60;;;2.13;;
21426;SDS011;10874;49.452;11.050;2023-04-24T04:20:45;2.43;;;1.90;;
21426;SDS011;10874;49.452;11.050;2023-04-24T04:23:14;2.03;;;1.50;;
21426;SDS011;10874;49.452;11.050;2023-04-24T04:26:01;4.07;;;2.07;;
21426;SDS011;10874;49.452;11.050;2023-04-24T04:28:38;2.20;;;2.00;;
21426;SDS011;10874;49.452;11.050;2023-04-24T04:31:06;2.77;;;1.70;;
21426;SDS011;10874;49.452;11.050;2023-04-24T04:33:34;3.10;;;2.40;;
21426;SDS011;10874;49.452;11.050;2023-04-24T04:36:02;4.80;;;1.80;;
21426;SDS011;10874;49.452;11.050;2023-04-24T04:38:31;2.20;;;2.00;;
21426;SDS011;10874;49.452;11.050;2023-04-24T04:41:07;4.23;;;2.47;;
21426;SDS011;10874;49.452;11.050;2023-04-24T04:43:34;3.13;;;2.60;;
21426;SDS011;10874;49.452;11.050;2023-04-24T04:46:02;5.87;;;3.43;;
21426;SDS011;10874;49.452;11.050;2023-04-24T04:48:38;4.37;;;3.80;;
21426;SDS011;10874;49.452;11.050;2023-04-24T04:51:06;8.93;;;3.43;;
21426;SDS011;10874;49.452;11.050;2023-04-24T04:53:33;5.63;;;4.27;;
21426;SDS011;10874;49.452;11.050;2023-04-24T04:56:01;5.60;;;4.27;;
21426;SDS011;10874;49.452;11.050;2023-04-24T04:58:35;6.90;;;3.90;;
21426;SDS011;10874;49.452;11.050;2023-04-24T05:01:03;6.03;;;3.70;;
21426;SDS011;10874;49.452;11.050;2023-04-24T05:03:35;4.60;;;3.20;;
21426;SDS011;10874;49.452;11.050;2023-04-24T05:06:06;4.77;;;3.13;;
21426;SDS011;10874;49.452;11.050;2023-04-24T05:08:36;5.67;;;3.20;;
21426;SDS011;10874;49.452;11.050;2023-04-24T05:11:06;3.83;;;3.20;;
21426;SDS011;10874;49.452;11.050;2023-04-24T05:13:33;2.63;;;2.40;;
21426;SDS011;10874;49.452;11.050;2023-04-24T05:16:17;2.87;;;2.50;;
21426;SDS011;10874;49.452;11.050;2023-04-24T05:18:44;2.63;;;2.30;;
21426;SDS011;10874;49.452;11.050;2023-04-24T05:21:14;4.80;;;2.43;;
21426;SDS011;10874;49.452;11.050;2023-04-24T05:23:44;2.40;;;2.20;;
21426;SDS011;10874;49.452;11.050;2023-04-24T05:26:14;3.43;;;1.93;;
21426;SDS011;10874;49.452;11.050;2023-04-24T05:28:41;3.77;;;3.10;;
21426;SDS011;10874;49.452;11.050;2023-04-24T05:31:11;3.13;;;2.20;;
21426;SDS011;10874;49.452;11.050;2023-04-24T05:33:38;2.33;;;2.13;;
21426;SDS011;10874;49.452;11.050;2023-04-24T05:36:06;2.80;;;2.60;;
21426;SDS011;10874;49.452;11.050;2023-04-24T05:38:33;2.53;;;2.33;;
21426;SDS011;10874;49.452;11.050;2023-04-24T05:40:59;3.00;;;1.90;;
21426;SDS011;10874;49.452;11.050;2023-04-24T05:43:26;4.73;;;2.30;;
21426;SDS011;10874;49.452;11.050;2023-04-24T05:45:53;3.20;;;2.50;;
21426;SDS011;10874;49.452;11.050;2023-04-24T05:48:20;4.47;;;2.50;;
21426;SDS011;10874;49.452;11.050;2023-04-24T05:50:48;3.27;;;2.23;;
21426;SDS011;10874;49.452;11.050;2023-04-24T05:53:15;4.77;;;2.20;;
21426;SDS011;10874;49.452;11.050;2023-04-24T05:55:42;3.53;;;2.20;;
21426;SDS011;10874;49.452;11.050;2023-04-24T05:58:09;3.97;;;2.30;;
21426;SDS011;10874;49.452;11.050;2023-04-24T06:00:37;2.40;;;2.00;;
21426;SDS011;10874;49.452;11.050;2023-04-24T06:03:06;5.87;;;3.20;;
21426;SDS011;10874;49.452;11.050;2023-04-24T06:05:34;4.03;;;2.47;;
21426;SDS011;10874;49.452;11.050;2023-04-24T06:08:02;3.23;;;2.30;;
21426;SDS011;10874;49.452;11.050;2023-04-24T06:10:33;3.47;;;2.30;;
21426;SDS011;10874;49.452;11.050;2023-04-24T06:13:00;2.87;;;2.50;;
21426;SDS011;10874;49.452;11.050;2023-04-24T06:15:29;2.07;;;1.80;;
21426;SDS011;10874;49.452;11.050;2023-04-24T06:18:00;3.00;;;2.10;;
21426;SDS011;10874;49.452;11.050;2023-04-24T06:20:27;2.40;;;2.20;;
21426;SDS011;10874;49.452;11.050;2023-04-24T06:22:54;2.53;;;1.90;;
21426;SDS011;10874;49.452;11.050;2023-04-24T06:25:21;2.80;;;2.00;;
21426;SDS011;10874;49.452;11.050;2023-04-24T06:27:49;4.67;;;2.20;;
21426;SDS011;10874;49.452;11.050;2023-04-24T06:30:16;2.40;;;2.13;;
21426;SDS011;10874;49.452;11.050;2023-04-24T06:32:43;3.43;;;2.50;;
21426;SDS011;10874;49.452;11.050;2023-04-24T06:35:10;3.33;;;2.20;;
21426;SDS011;10874;49.452;11.050;2023-04-24T06:37:39;2.47;;;2.20;;
21426;SDS011;10874;49.452;11.050;2023-04-24T06:40:06;2.43;;;1.70;;
21426;SDS011;10874;49.452;11.050;2023-04-24T06:42:35;2.10;;;1.60;;
21426;SDS011;10874;49.452;11.050;2023-04-24T06:45:03;3.40;;;1.90;;
21426;SDS011;10874;49.452;11.050;2023-04-24T06:47:30;3.83;;;1.60;;
21426;SDS011;10874;49.452;11.050;2023-04-24T06:49:56;4.70;;;1.67;;
21426;SDS011;10874;49.452;11.050;2023-04-24T06:52:23;2.60;;;1.80;;
21426;SDS011;10874;49.452;11.050;2023-04-24T06:54:50;3.43;;;1.60;;
21426;SDS011;10874;49.452;11.050;2023-04-24T06:57:17;3.00;;;1.97;;
21426;SDS011;10874;49.452;11.050;2023-04-24T06:59:44;2.90;;;1.50;;
21426;SDS011;10874;49.452;11.050;2023-04-24T07:02:11;3.43;;;1.40;;
21426;SDS011;10874;49.452;11.050;2023-04-24T07:04:37;2.37;;;1.27;;
21426;SDS011;10874;49.452;11.050;2023-04-24T07:07:04;2.57;;;1.10;;
21426;SDS011;10874;49.452;11.050;2023-04-24T07:09:33;3.00;;;1.10;;
21426;SDS011;10874;49.452;11.050;2023-04-24T07:12:01;1.87;;;1.30;;
21426;SDS011;10874;49.452;11.050;2023-04-24T07:14:28;1.77;;;1.50;;
21426;SDS011;10874;49.452;11.050;2023-04-24T07:16:55;1.37;;;1.00;;
21426;SDS011;10874;49.452;11.050;2023-04-24T07:19:23;2.50;;;1.50;;
21426;SDS011;10874;49.452;11.050;2023-04-24T07:21:50;2.40;;;1.20;;
21426;SDS011;10874;49.452;11.050;2023-04-24T07:24:17;1.30;;;1.20;;
21426;SDS011;10874;49.452;11.050;2023-04-24T07:26:46;1.77;;;1.20;;
21426;SDS011;10874;49.452;11.050;2023-04-24T07:29:13;1.60;;;1.30;;
21426;SDS011;10874;49.452;11.050;2023-04-24T07:31:40;3.33;;;1.30;;
21426;SDS011;10874;49.452;11.050;2023-04-24T07:34:07;1.40;;;1.10;;
21426;SDS011;10874;49.452;11.050;2023-04-24T07:36:34;1.50;;;1.40;;
21426;SDS011;10874;49.452;11.050;2023-04-24T07:39:01;1.80;;;1.40;;
21426;SDS011;10874;49.452;11.050;2023-04-24T07:41:28;2.50;;;1.60;;
21426;SDS011;10874;49.452;11.050;2023-04-24T07:43:54;1.40;;;1.23;;
21426;SDS011;10874;49.452;11.050;2023-04-24T07:46:21;1.50;;;1.40;;
21426;SDS011;10874;49.452;11.050;2023-04-24T07:48:48;1.43;;;1.33;;
21426;SDS011;10874;49.452;11.050;2023-04-24T07:51:31;1.67;;;1.50;;
21426;SDS011;10874;49.452;11.050;2023-04-24T07:53:59;2.07;;;1.50;;
21426;SDS011;10874;49.452;11.050;2023-04-24T07:56:25;2.53;;;1.40;;
21426;SDS011;10874;49.452;11.050;2023-04-24T07:58:53;2.73;;;1.43;;
21426;SDS011;10874;49.452;11.050;2023-04-24T08:01:20;1.60;;;1.30;;
21426;SDS011;10874;49.452;11.050;2023-04-24T08:03:47;1.73;;;1.20;;
21426;SDS011;10874;49.452;11.050;2023-04-24T08:06:14;2.53;;;1.57;;
21426;SDS011;10874;49.452;11.050;2023-04-24T08:08:41;1.60;;;1.50;;
21426;SDS011;10874;49.452;11.050;2023-04-24T08:11:08;1.90;;;1.80;;
21426;SDS011;10874;49.452;11.050;2023-04-24T08:13:35;1.80;;;1.70;;
21426;SDS011;10874;49.452;11.050;2023-04-24T08:16:01;2.60;;;1.77;;
21426;SDS011;10874;49.452;11.050;2023-04-24T08:18:28;1.77;;;1.50;;
21426;SDS011;10874;49.452;11.050;2023-04-24T08:20:55;1.70;;;1.60;;
21426;SDS011;10874;49.452;11.050;2023-04-24T08:23:22;3.30;;;2.00;;
21426;SDS011;10874;49.452;11.050;2023-04-24T08:25:49;2.10;;;1.83;;
21426;SDS011;10874;49.452;11.050;2023-04-24T08:28:16;2.47;;;1.90;;
21426;SDS011;10874;49.452;11.050;2023-04-24T08:30:46;2.77;;;1.63;;
21426;SDS011;10874;49.452;11.050;2023-04-24T08:33:22;3.50;;;1.93;;
21426;SDS011;10874;49.452;11.050;2023-04-24T08:35:48;2.33;;;2.13;;
21426;SDS011;10874;49.452;11.050;2023-04-24T08:38:16;3.23;;;2.07;;
21426;SDS011;10874;49.452;11.050;2023-04-24T08:40:43;2.20;;;2.00;;
21426;SDS011;10874;49.452;11.050;2023-04-24T08:43:09;2.10;;;1.90;;
21426;SDS011;10874;49.452;11.050;2023-04-24T08:45:36;2.67;;;2.20;;
21426;SDS011;10874;49.452;11.050;2023-04-24T08:48:04;2.47;;;1.93;;
21426;SDS011;10874;49.452;11.050;2023-04-24T08:50:35;2.67;;;2.37;;
21426;SDS011;10874;49.452;11.050;2023-04-24T08:53:02;2.83;;;2.17;;
21426;SDS011;10874;49.452;11.050;2023-04-24T08:55:30;2.47;;;1.97;;
21426;SDS011;10874;49.452;11.050;2023-04-24T08:57:59;2.77;;;2.10;;
21426;SDS011;10874;49.452;11.050;2023-04-24T09:00:26;3.60;;;2.30;;
21426;SDS011;10874;49.452;11.050;2023-04-24T09:02:53;2.17;;;2.07;;
21426;SDS011;10874;49.452;11.050;2023-04-24T09:05:21;3.80;;;2.20;;
21426;SDS011;10874;49.452;11.050;2023-04-24T09:07:53;3.30;;;2.20;;
21426;SDS011;10874;49.452;11.050;2023-04-24T09:10:24;3.07;;;2.10;;
21426;SDS011;10874;49.452;11.050;2023-04-24T09:12:51;3.23;;;2.03;;
21426;SDS011;10874;49.452;11.050;2023-04-24T09:15:18;2.93;;;2.10;;
21426;SDS011;10874;49.452;11.050;2023-04-24T09:17:45;3.67;;;2.20;;
21426;SDS011;10874;49.452;11.050;2023-04-24T09:20:12;2.10;;;1.90;;
21426;SDS011;10874;49.452;11.050;2023-04-24T09:22:38;3.20;;;1.83;;
21426;SDS011;10874;49.452;11.050;2023-04-24T09:25:06;2.10;;;2.00;;
21426;SDS011;10874;49.452;11.050;2023-04-24T09:27:34;3.03;;;2.00;;
21426;SDS011;10874;49.452;11.050;2023-04-24T09:30:01;4.10;;;1.90;;
21426;SDS011;10874;49.452;11.050;2023-04-24T09:32:28;1.97;;;1.87;;
21426;SDS011;10874;49.452;11.050;2023-04-24T09:35:10;3.30;;;2.10;;
21426;SDS011;10874;49.452;11.050;2023-04-24T09:37:45;3.40;;;1.70;;
21426;SDS011;10874;49.452;11.050;2023-04-24T09:40:16;1.90;;;1.70;;
21426;SDS011;10874;49.452;11.050;2023-04-24T09:42:43;1.87;;;1.67;;
21426;SDS011;10874;49.452;11.050;2023-04-24T09:45:11;1.77;;;1.67;;
21426;SDS011;10874;49.452;11.050;2023-04-24T09:47:41;2.10;;;1.77;;
21426;SDS011;10874;49.452;11.050;2023-04-24T09:50:09;3.33;;;1.53;;
21426;SDS011;10874;49.452;11.050;2023-04-24T09:52:35;1.93;;;1.30;;
21426;SDS011;10874;49.452;11.050;2023-04-24T09:55:10;2.67;;;1.57;;
21426;SDS011;10874;49.452;11.050;2023-04-24T09:57:46;3.23;;;1.40;;
21426;SDS011;10874;49.452;11.050;2023-04-24T10:00:13;2.27;;;1.30;;
21426;SDS011;10874;49.452;11.050;2023-04-24T10:02:40;1.60;;;1.50;;
21426;SDS011;10874;49.452;11.050;2023-04-24T10:05:06;2.50;;;1.40;;
21426;SDS011;10874;49.452;11.050;2023-04-24T10:07:37;2.03;;;1.30;;
21426;SDS011;10874;49.452;11.050;2023-04-24T10:10:04;2.13;;;1.50;;
21426;SDS011;10874;49.452;11.050;2023-04-24T10:12:31;2.50;;;1.70;;
21426;SDS011;10874;49.452;11.050;2023-04-24T10:14:58;1.77;;;1.40;;
21426;SDS011;10874;49.452;11.050;2023-04-24T10:17:25;2.13;;;1.10;;
21426;SDS011;10874;49.452;11.050;2023-04-24T10:19:52;2.07;;;1.40;;
21426;SDS011;10874;49.452;11.050;2023-04-24T10:22:19;1.37;;;1.27;;
21426;SDS011;10874;49.452;11.050;2023-04-24T10:24:46;3.33;;;1.40;;
21426;SDS011;10874;49.452;11.050;2023-04-24T10:27:13;1.23;;;1.13;;
21426;SDS011;10874;49.452;11.050;2023-04-24T10:29:42;2.23;;;1.30;;
21426;SDS011;10874;49.452;11.050;2023-04-24T10:32:10;2.67;;;1.10;;
21426;SDS011;10874;49.452;11.050;2023-04-24T10:34:37;2.70;;;1.37;;
21426;SDS011;10874;49.452;11.050;2023-04-24T10:37:04;1.30;;;1.20;;
21426;SDS011;10874;49.452;11.050;2023-04-24T10:39:31;1.33;;;0.93;;
21426;SDS011;10874;49.452;11.050;2023-04-24T10:41:59;1.43;;;1.00;;
21426;SDS011;10874;49.452;11.050;2023-04-24T10:44:29;1.17;;;1.10;;
21426;SDS011;10874;49.452;11.050;2023-04-24T10:47:02;2.03;;;1.23;;
21426;SDS011;10874;49.452;11.050;2023-04-24T10:49:29;2.07;;;1.27;;
21426;SDS011;10874;49.452;11.050;2023-04-24T10:51:59;1.37;;;1.20;;
21426;SDS011;10874;49.452;11.050;2023-04-24T10:54:28;1.53;;;1.00;;
21426;SDS011;10874;49.452;11.050;2023-04-24T10:57:28;2.13;;;1.20;;
21426;SDS011;10874;49.452;11.050;2023-04-24T10:59:49;2.20;;;0.90;;
21426;SDS011;10874;49.452;11.050;2023-04-24T11:02:17;1.40;;;1.23;;
21426;SDS011;10874;49.452;11.050;2023-04-24T11:04:44;1.53;;;1.10;;
21426;SDS011;10874;49.452;11.050;2023-04-24T11:07:14;1.20;;;1.00;;
21426;SDS011;10874;49.452;11.050;2023-04-24T11:09:41;1.73;;;1.00;;
21426;SDS011;10874;49.452;11.050;2023-04-24T11:12:10;2.40;;;1.00;;
21426;SDS011;10874;49.452;11.050;2023-04-24T11:17:36;1.37;;;0.80;;
21426;SDS011;10874;49.452;11.050;2023-04-24T11:20:04;2.30;;;1.33;;
21426;SDS011;10874;49.452;11.050;2023-04-24T11:22:53;1.50;;;1.40;;
21426;SDS011;10874;49.452;11.050;2023-04-24T11:25:21;2.27;;;1.17;;
21426;SDS011;10874;49.452;11.050;2023-04-24T11:27:49;1.50;;;1.40;;
21426;SDS011;10874;49.452;11.050;2023-04-24T11:30:17;1.27;;;1.17;;
21426;SDS011;10874;49.452;11.050;2023-04-24T11:32:46;1.60;;;1.50;;
21426;SDS011;10874;49.452;11.050;2023-04-24T11:35:19;2.77;;;1.80;;
21426;SDS011;10874;49.452;11.050;2023-04-24T11:37:51;1.60;;;1.50;;
21426;SDS011;10874;49.452;11.050;2023-04-24T11:40:38;5.33;;;1.80;;
21426;SDS011;10874;49.452;11.050;2023-04-24T11:43:06;2.37;;;1.63;;
21426;SDS011;10874;49.452;11.050;2023-04-24T11:45:34;2.27;;;1.60;;
21426;SDS011;10874;49.452;11.050;2023-04-24T11:48:02;1.70;;;1.60;;
21426;SDS011;10874;49.452;11.050;2023-04-24T11:50:29;2.80;;;1.70;;
21426;SDS011;10874;49.452;11.050;2023-04-24T11:52:56;2.40;;;1.80;;
21426;SDS011;10874;49.452;11.050;2023-04-24T11:55:27;2.20;;;1.57;;
21426;SDS011;10874;49.452;11.050;2023-04-24T11:57:57;2.00;;;1.80;;
21426;SDS011;10874;49.452;11.050;2023-04-24T12:00:29;2.20;;;1.53;;
21426;SDS011;10874;49.452;11.050;2023-04-24T12:03:03;2.10;;;1.33;;
21426;SDS011;10874;49.452;11.050;2023-04-24T12:05:30;2.33;;;1.70;;
21426;SDS011;10874;49.452;11.050;2023-04-24T12:08:01;1.77;;;1.57;;
21426;SDS011;10874;49.452;11.050;2023-04-24T12:10:29;2.80;;;1.67;;
21426;SDS011;10874;49.452;11.050;2023-04-24T12:12:56;1.60;;;1.50;;
21426;SDS011;10874;49.452;11.050;2023-04-24T12:15:24;2.67;;;1.80;;
21426;SDS011;10874;49.452;11.050;2023-04-24T12:17:51;2.57;;;1.93;;
21426;SDS011;10874;49.452;11.050;2023-04-24T12:20:23;2.07;;;1.87;;
21426;SDS011;10874;49.452;11.050;2023-04-24T12:22:51;1.90;;;1.53;;
21426;SDS011;10874;49.452;11.050;2023-04-24T12:25:21;2.10;;;1.90;;
21426;SDS011;10874;49.452;11.050;2023-04-24T12:27:52;1.63;;;1.53;;
21426;SDS011;10874;49.452;11.050;2023-04-24T12:30:19;1.83;;;1.70;;
21426;SDS011;10874;49.452;11.050;2023-04-24T12:32:49;1.90;;;1.77;;
21426;SDS011;10874;49.452;11.050;2023-04-24T12:35:20;1.90;;;1.70;;
21426;SDS011;10874;49.452;11.050;2023-04-24T12:37:47;1.97;;;1.87;;
21426;SDS011;10874;49.452;11.050;2023-04-24T12:40:14;2.37;;;1.53;;
21426;SDS011;10874;49.452;11.050;2023-04-24T12:42:42;2.77;;;1.57;;
21426;SDS011;10874;49.452;11.050;2023-04-24T12:45:09;2.33;;;1.40;;
21426;SDS011;10874;49.452;11.050;2023-04-24T12:47:38;1.80;;;1.30;;
21426;SDS011;10874;49.452;11.050;2023-04-24T12:50:07;1.30;;;1.20;;
21426;SDS011;10874;49.452;11.050;2023-04-24T12:52:34;1.50;;;1.40;;
21426;SDS011;10874;49.452;11.050;2023-04-24T12:55:01;1.70;;;1.50;;
21426;SDS011;10874;49.452;11.050;2023-04-24T12:57:28;1.77;;;1.57;;
21426;SDS011;10874;49.452;11.050;2023-04-24T12:59:55;3.53;;;1.40;;
21426;SDS011;10874;49.452;11.050;2023-04-24T13:02:23;1.60;;;1.50;;
21426;SDS011;10874;49.452;11.050;2023-04-24T13:04:50;2.13;;;1.67;;
21426;SDS011;10874;49.452;11.050;2023-04-24T13:07:17;1.57;;;1.47;;
21426;SDS011;10874;49.452;11.050;2023-04-24T13:09:44;1.57;;;1.30;;
21426;SDS011;10874;49.452;11.050;2023-04-24T13:12:11;1.97;;;1.37;;
21426;SDS011;10874;49.452;11.050;2023-04-24T13:14:38;1.50;;;1.40;;
21426;SDS011;10874;49.452;11.050;2023-04-24T13:17:04;1.13;;;1.03;;
21426;SDS011;10874;49.452;11.050;2023-04-24T13:19:38;1.93;;;1.40;;
21426;SDS011;10874;49.452;11.050;2023-04-24T13:22:05;1.47;;;1.37;;
21426;SDS011;10874;49.452;11.050;2023-04-24T13:24:32;2.23;;;1.43;;
21426;SDS011;10874;49.452;11.050;2023-04-24T13:26:59;1.80;;;1.60;;
21426;SDS011;10874;49.452;11.050;2023-04-24T13:29:26;2.20;;;1.60;;
21426;SDS011;10874;49.452;11.050;2023-04-24T13:31:53;2.43;;;1.50;;
21426;SDS011;10874;49.452;11.050;2023-04-24T13:34:24;1.70;;;1.60;;
21426;SDS011;10874;49.452;11.050;2023-04-24T13:36:52;2.17;;;1.53;;
21426;SDS011;10874;49.452;11.050;2023-04-24T13:39:19;1.73;;;1.63;;
21426;SDS011;10874;49.452;11.050;2023-04-24T13:41:46;2.13;;;1.87;;
21426;SDS011;10874;49.452;11.050;2023-04-24T13:44:16;1.97;;;1.87;;
21426;SDS011;10874;49.452;11.050;2023-04-24T13:46:43;2.53;;;1.80;;
21426;SDS011;10874;49.452;11.050;2023-04-24T13:49:11;2.20;;;1.90;;
21426;SDS011;10874;49.452;11.050;2023-04-24T13:51:39;4.43;;;1.93;;
21426;SDS011;10874;49.452;11.050;2023-04-24T13:54:06;2.53;;;1.90;;
21426;SDS011;10874;49.452;11.050;2023-04-24T13:56:33;1.80;;;1.70;;
21426;SDS011;10874;49.452;11.050;2023-04-24T13:59:00;3.27;;;2.10;;
21426;SDS011;10874;49.452;11.050;2023-04-24T14:01:27;3.77;;;2.40;;
21426;SDS011;10874;49.452;11.050;2023-04-24T14:03:55;2.57;;;2.17;;
21426;SDS011;10874;49.452;11.050;2023-04-24T14:06:22;2.33;;;2.13;;
21426;SDS011;10874;49.452;11.050;2023-04-24T14:08:49;2.00;;;1.80;;
21426;SDS011;10874;49.452;11.050;2023-04-24T14:11:17;2.17;;;1.97;;
21426;SDS011;10874;49.452;11.050;2023-04-24T14:13:45;2.20;;;1.60;;
21426;SDS011;10874;49.452;11.050;2023-04-24T14:16:12;2.10;;;2.00;;
21426;SDS011;10874;49.452;11.050;2023-04-24T14:18:39;2.30;;;2.10;;
21426;SDS011;10874;49.452;11.050;2023-04-24T14:21:06;2.83;;;1.80;;
21426;SDS011;10874;49.452;11.050;2023-04-24T14:23:33;2.00;;;1.90;;
21426;SDS011;10874;49.452;11.050;2023-04-24T14:25:59;3.43;;;2.27;;
21426;SDS011;10874;49.452;11.050;2023-04-24T14:28:26;1.80;;;1.70;;
21426;SDS011;10874;49.452;11.050;2023-04-24T14:30:53;3.53;;;2.20;;
21426;SDS011;10874;49.452;11.050;2023-04-24T14:33:20;2.20;;;2.00;;
21426;SDS011;10874;49.452;11.050;2023-04-24T14:35:47;2.20;;;2.00;;
21426;SDS011;10874;49.452;11.050;2023-04-24T14:38:14;2.10;;;1.83;;
21426;SDS011;10874;49.452;11.050;2023-04-24T14:40:41;2.30;;;1.90;;
21426;SDS011;10874;49.452;11.050;2023-04-24T14:43:11;3.27;;;1.90;;